sensor_id;sensor_type;location;lat;lon;timestamp;P1;durP1;ratioP1;P2;durP2;ratioP2
74679;SDS011;63211;48.548;2.704;2024-03-08T00:02:13;2.20;;;1.30;;
74679;SDS011;63211;48.548;2.704;2024-03-08T00:04:40;2.78;;;1.30;;
74679;SDS011;63211;48.548;2.704;2024-03-08T00:07:07;2.08;;;1.27;;
74679;SDS011;63211;48.548;2.704;2024-03-08T00:09:33;2.72;;;1.63;;
74679;SDS011;63211;48.548;2.704;2024-03-08T00:12:00;3.15;;;1.40;;
74679;SDS011;63211;48.548;2.704;2024-03-08T00:14:27;2.08;;;1.23;;
74679;SDS011;63211;48.548;2.704;2024-03-08T00:16:55;2.65;;;1.40;;
74679;SDS011;63211;48.548;2.704;2024-03-08T00:19:21;2.13;;;1.35;;
74679;SDS011;63211;48.548;2.704;2024-03-08T00:21:48;3.00;;;1.55;;
74679;SDS011;63211;48.548;2.704;2024-03-08T00:24:14;2.97;;;1.70;;
74679;SDS011;63211;48.548;2.704;2024-03-08T00:26:41;2.13;;;1.20;;
74679;SDS011;63211;48.548;2.704;2024-03-08T00:29:08;3.15;;;1.52;;
74679;SDS011;63211;48.548;2.704;2024-03-08T00:31:35;2.50;;;1.17;;
74679;SDS011;63211;48.548;2.704;2024-03-08T00:34:03;2.33;;;1.10;;
74679;SDS011;63211;48.548;2.704;2024-03-08T00:36:30;2.58;;;1.50;;
74679;SDS011;63211;48.548;2.704;2024-03-08T00:38:56;2.65;;;1.10;;
74679;SDS011;63211;48.548;2.704;2024-03-08T00:41:25;2.60;;;1.48;;
74679;SDS011;63211;48.548;2.704;2024-03-08T00:43:52;3.22;;;1.95;;
74679;SDS011;63211;48.548;2.704;2024-03-08T00:46:18;3.15;;;1.40;;
74679;SDS011;63211;48.548;2.704;2024-03-08T00:48:45;1.95;;;1.33;;
74679;SDS011;63211;48.548;2.704;2024-03-08T00:51:13;2.20;;;1.27;;
74679;SDS011;63211;48.548;2.704;2024-03-08T00:53:41;2.95;;;1.67;;
74679;SDS011;63211;48.548;2.704;2024-03-08T00:56:08;3.05;;;1.50;;
74679;SDS011;63211;48.548;2.704;2024-03-08T00:58:35;3.35;;;1.30;;
74679;SDS011;63211;48.548;2.704;2024-03-08T01:01:02;2.33;;;1.13;;
74679;SDS011;63211;48.548;2.704;2024-03-08T01:03:29;2.72;;;1.45;;
74679;SDS011;63211;48.548;2.704;2024-03-08T01:05:56;3.53;;;1.63;;
74679;SDS011;63211;48.548;2.704;2024-03-08T01:08:27;3.08;;;1.60;;
74679;SDS011;63211;48.548;2.704;2024-03-08T01:10:54;3.30;;;1.52;;
74679;SDS011;63211;48.548;2.704;2024-03-08T01:13:20;2.65;;;1.25;;
74679;SDS011;63211;48.548;2.704;2024-03-08T01:15:47;3.00;;;1.75;;
74679;SDS011;63211;48.548;2.704;2024-03-08T01:18:14;3.42;;;1.17;;
74679;SDS011;63211;48.548;2.704;2024-03-08T01:20:40;2.65;;;1.45;;
74679;SDS011;63211;48.548;2.704;2024-03-08T01:23:07;3.85;;;1.50;;
74679;SDS011;63211;48.548;2.704;2024-03-08T01:25:35;2.65;;;1.25;;
74679;SDS011;63211;48.548;2.704;2024-03-08T01:28:02;2.08;;;1.30;;
74679;SDS011;63211;48.548;2.704;2024-03-08T01:30:29;2.78;;;1.45;;
74679;SDS011;63211;48.548;2.704;2024-03-08T01:32:57;2.80;;;1.42;;
74679;SDS011;63211;48.548;2.704;2024-03-08T01:35:24;2.67;;;1.50;;
74679;SDS011;63211;48.548;2.704;2024-03-08T01:37:52;2.22;;;1.40;;
74679;SDS011;63211;48.548;2.704;2024-03-08T01:40:18;2.90;;;1.33;;
74679;SDS011;63211;48.548;2.704;2024-03-08T01:42:46;2.22;;;1.27;;
74679;SDS011;63211;48.548;2.704;2024-03-08T01:45:13;2.80;;;1.30;;
74679;SDS011;63211;48.548;2.704;2024-03-08T01:47:40;2.70;;;1.35;;
74679;SDS011;63211;48.548;2.704;2024-03-08T01:50:07;2.58;;;1.40;;
74679;SDS011;63211;48.548;2.704;2024-03-08T01:52:33;2.20;;;1.20;;
74679;SDS011;63211;48.548;2.704;2024-03-08T01:55:01;2.15;;;1.23;;
74679;SDS011;63211;48.548;2.704;2024-03-08T01:57:32;3.40;;;1.50;;
74679;SDS011;63211;48.548;2.704;2024-03-08T02:00:00;3.15;;;1.50;;
74679;SDS011;63211;48.548;2.704;2024-03-08T02:02:31;2.22;;;1.35;;
74679;SDS011;63211;48.548;2.704;2024-03-08T02:04:59;3.63;;;1.50;;
74679;SDS011;63211;48.548;2.704;2024-03-08T02:07:26;2.55;;;1.20;;
74679;SDS011;63211;48.548;2.704;2024-03-08T02:09:53;4.43;;;1.33;;
74679;SDS011;63211;48.548;2.704;2024-03-08T02:12:19;2.53;;;1.50;;
74679;SDS011;63211;48.548;2.704;2024-03-08T02:14:46;3.35;;;1.13;;
74679;SDS011;63211;48.548;2.704;2024-03-08T02:17:14;2.10;;;1.27;;
74679;SDS011;63211;48.548;2.704;2024-03-08T02:19:41;3.17;;;1.40;;
74679;SDS011;63211;48.548;2.704;2024-03-08T02:22:09;2.40;;;1.30;;
74679;SDS011;63211;48.548;2.704;2024-03-08T02:24:35;3.35;;;1.75;;
74679;SDS011;63211;48.548;2.704;2024-03-08T02:27:02;3.35;;;1.60;;
74679;SDS011;63211;48.548;2.704;2024-03-08T02:29:30;2.33;;;1.15;;
74679;SDS011;63211;48.548;2.704;2024-03-08T02:31:59;2.17;;;1.13;;
74679;SDS011;63211;48.548;2.704;2024-03-08T02:34:26;2.55;;;1.45;;
74679;SDS011;63211;48.548;2.704;2024-03-08T02:36:53;2.40;;;1.15;;
74679;SDS011;63211;48.548;2.704;2024-03-08T02:39:22;2.08;;;1.17;;
74679;SDS011;63211;48.548;2.704;2024-03-08T02:41:49;2.13;;;1.17;;
74679;SDS011;63211;48.548;2.704;2024-03-08T02:44:16;1.90;;;1.17;;
74679;SDS011;63211;48.548;2.704;2024-03-08T02:46:42;5.50;;;1.50;;
74679;SDS011;63211;48.548;2.704;2024-03-08T02:49:09;2.55;;;1.20;;
74679;SDS011;63211;48.548;2.704;2024-03-08T02:51:36;2.50;;;1.20;;
74679;SDS011;63211;48.548;2.704;2024-03-08T02:54:03;2.50;;;1.40;;
74679;SDS011;63211;48.548;2.704;2024-03-08T02:56:31;2.35;;;1.40;;
74679;SDS011;63211;48.548;2.704;2024-03-08T02:58:59;2.90;;;1.42;;
74679;SDS011;63211;48.548;2.704;2024-03-08T03:01:26;2.45;;;1.25;;
74679;SDS011;63211;48.548;2.704;2024-03-08T03:03:53;2.83;;;1.30;;
74679;SDS011;63211;48.548;2.704;2024-03-08T03:06:19;2.95;;;1.42;;
74679;SDS011;63211;48.548;2.704;2024-03-08T03:08:46;1.85;;;0.95;;
74679;SDS011;63211;48.548;2.704;2024-03-08T03:11:13;2.15;;;1.23;;
74679;SDS011;63211;48.548;2.704;2024-03-08T03:13:41;2.45;;;1.20;;
74679;SDS011;63211;48.548;2.704;2024-03-08T03:16:16;3.05;;;1.40;;
74679;SDS011;63211;48.548;2.704;2024-03-08T03:18:43;2.33;;;1.13;;
74679;SDS011;63211;48.548;2.704;2024-03-08T03:21:10;3.17;;;1.55;;
74679;SDS011;63211;48.548;2.704;2024-03-08T03:23:38;2.55;;;1.50;;
74679;SDS011;63211;48.548;2.704;2024-03-08T03:26:05;3.55;;;1.45;;
74679;SDS011;63211;48.548;2.704;2024-03-08T03:28:32;2.88;;;1.30;;
74679;SDS011;63211;48.548;2.704;2024-03-08T03:31:00;2.67;;;1.17;;
74679;SDS011;63211;48.548;2.704;2024-03-08T03:33:27;2.65;;;1.30;;
74679;SDS011;63211;48.548;2.704;2024-03-08T03:35:53;2.25;;;1.10;;
74679;SDS011;63211;48.548;2.704;2024-03-08T03:38:20;2.80;;;1.60;;
74679;SDS011;63211;48.548;2.704;2024-03-08T03:40:48;2.30;;;1.05;;
74679;SDS011;63211;48.548;2.704;2024-03-08T03:43:17;2.97;;;1.38;;
74679;SDS011;63211;48.548;2.704;2024-03-08T03:45:44;2.22;;;1.20;;
74679;SDS011;63211;48.548;2.704;2024-03-08T03:48:12;2.10;;;1.27;;
74679;SDS011;63211;48.548;2.704;2024-03-08T03:50:38;3.90;;;1.80;;
74679;SDS011;63211;48.548;2.704;2024-03-08T03:53:05;2.10;;;1.13;;
74679;SDS011;63211;48.548;2.704;2024-03-08T03:55:33;2.67;;;1.23;;
74679;SDS011;63211;48.548;2.704;2024-03-08T03:57:59;3.08;;;1.33;;
74679;SDS011;63211;48.548;2.704;2024-03-08T04:00:27;2.00;;;1.20;;
74679;SDS011;63211;48.548;2.704;2024-03-08T04:02:53;3.05;;;1.52;;
74679;SDS011;63211;48.548;2.704;2024-03-08T04:05:25;2.55;;;1.30;;
74679;SDS011;63211;48.548;2.704;2024-03-08T04:07:52;2.17;;;1.30;;
74679;SDS011;63211;48.548;2.704;2024-03-08T04:10:18;2.22;;;1.25;;
74679;SDS011;63211;48.548;2.704;2024-03-08T04:12:45;2.50;;;1.20;;
74679;SDS011;63211;48.548;2.704;2024-03-08T04:15:12;2.40;;;1.17;;
74679;SDS011;63211;48.548;2.704;2024-03-08T04:17:38;2.75;;;1.40;;
74679;SDS011;63211;48.548;2.704;2024-03-08T04:20:05;3.08;;;1.58;;
74679;SDS011;63211;48.548;2.704;2024-03-08T04:22:36;2.13;;;1.02;;
74679;SDS011;63211;48.548;2.704;2024-03-08T04:25:03;2.05;;;1.10;;
74679;SDS011;63211;48.548;2.704;2024-03-08T04:27:31;2.38;;;1.25;;
74679;SDS011;63211;48.548;2.704;2024-03-08T04:29:58;2.97;;;1.33;;
74679;SDS011;63211;48.548;2.704;2024-03-08T04:32:24;3.08;;;1.20;;
74679;SDS011;63211;48.548;2.704;2024-03-08T04:34:51;2.85;;;1.30;;
74679;SDS011;63211;48.548;2.704;2024-03-08T04:37:17;2.30;;;1.23;;
74679;SDS011;63211;48.548;2.704;2024-03-08T04:39:48;2.78;;;1.20;;
74679;SDS011;63211;48.548;2.704;2024-03-08T04:42:15;2.97;;;1.40;;
74679;SDS011;63211;48.548;2.704;2024-03-08T04:44:43;3.30;;;1.38;;
74679;SDS011;63211;48.548;2.704;2024-03-08T04:47:09;2.53;;;1.25;;
74679;SDS011;63211;48.548;2.704;2024-03-08T04:49:36;3.38;;;1.65;;
74679;SDS011;63211;48.548;2.704;2024-03-08T04:52:02;1.75;;;0.90;;
74679;SDS011;63211;48.548;2.704;2024-03-08T04:54:29;2.47;;;1.13;;
74679;SDS011;63211;48.548;2.704;2024-03-08T04:56:57;3.50;;;1.67;;
74679;SDS011;63211;48.548;2.704;2024-03-08T04:59:26;2.25;;;1.23;;
74679;SDS011;63211;48.548;2.704;2024-03-08T05:01:52;2.83;;;1.40;;
74679;SDS011;63211;48.548;2.704;2024-03-08T05:04:19;3.05;;;1.60;;
74679;SDS011;63211;48.548;2.704;2024-03-08T05:06:46;2.33;;;1.20;;
74679;SDS011;63211;48.548;2.704;2024-03-08T05:09:12;2.83;;;1.55;;
74679;SDS011;63211;48.548;2.704;2024-03-08T05:11:41;2.85;;;1.20;;
74679;SDS011;63211;48.548;2.704;2024-03-08T05:14:09;3.25;;;1.30;;
74679;SDS011;63211;48.548;2.704;2024-03-08T05:16:36;2.03;;;0.95;;
74679;SDS011;63211;48.548;2.704;2024-03-08T05:19:02;2.72;;;1.40;;
74679;SDS011;63211;48.548;2.704;2024-03-08T05:21:29;2.50;;;1.20;;
74679;SDS011;63211;48.548;2.704;2024-03-08T05:23:55;2.45;;;1.20;;
74679;SDS011;63211;48.548;2.704;2024-03-08T05:26:22;2.40;;;1.20;;
74679;SDS011;63211;48.548;2.704;2024-03-08T05:28:49;3.05;;;1.60;;
74679;SDS011;63211;48.548;2.704;2024-03-08T05:31:19;2.13;;;1.27;;
74679;SDS011;63211;48.548;2.704;2024-03-08T05:33:47;2.63;;;1.42;;
74679;SDS011;63211;48.548;2.704;2024-03-08T05:36:21;2.42;;;1.27;;
74679;SDS011;63211;48.548;2.704;2024-03-08T05:38:48;2.30;;;1.17;;
74679;SDS011;63211;48.548;2.704;2024-03-08T05:41:15;3.30;;;1.77;;
74679;SDS011;63211;48.548;2.704;2024-03-08T05:43:42;2.33;;;1.40;;
74679;SDS011;63211;48.548;2.704;2024-03-08T05:46:08;2.33;;;1.40;;
74679;SDS011;63211;48.548;2.704;2024-03-08T05:48:38;2.30;;;1.10;;
74679;SDS011;63211;48.548;2.704;2024-03-08T05:51:04;2.30;;;1.13;;
74679;SDS011;63211;48.548;2.704;2024-03-08T05:53:31;2.42;;;1.20;;
74679;SDS011;63211;48.548;2.704;2024-03-08T05:55:57;2.38;;;1.23;;
74679;SDS011;63211;48.548;2.704;2024-03-08T05:58:24;2.25;;;1.17;;
74679;SDS011;63211;48.548;2.704;2024-03-08T06:00:51;2.90;;;1.10;;
74679;SDS011;63211;48.548;2.704;2024-03-08T06:03:24;2.65;;;1.35;;
74679;SDS011;63211;48.548;2.704;2024-03-08T06:05:52;2.58;;;1.00;;
74679;SDS011;63211;48.548;2.704;2024-03-08T06:08:18;3.50;;;1.38;;
74679;SDS011;63211;48.548;2.704;2024-03-08T06:10:45;1.73;;;0.85;;
74679;SDS011;63211;48.548;2.704;2024-03-08T06:13:14;2.85;;;1.38;;
74679;SDS011;63211;48.548;2.704;2024-03-08T06:15:41;3.60;;;1.27;;
74679;SDS011;63211;48.548;2.704;2024-03-08T06:18:07;4.25;;;1.70;;
74679;SDS011;63211;48.548;2.704;2024-03-08T06:20:35;4.05;;;1.05;;
74679;SDS011;63211;48.548;2.704;2024-03-08T06:23:03;3.58;;;1.50;;
74679;SDS011;63211;48.548;2.704;2024-03-08T06:25:30;1.75;;;1.00;;
74679;SDS011;63211;48.548;2.704;2024-03-08T06:27:57;2.60;;;1.13;;
74679;SDS011;63211;48.548;2.704;2024-03-08T06:30:23;2.17;;;1.08;;
74679;SDS011;63211;48.548;2.704;2024-03-08T06:32:50;2.22;;;1.05;;
74679;SDS011;63211;48.548;2.704;2024-03-08T06:35:16;2.35;;;1.20;;
74679;SDS011;63211;48.548;2.704;2024-03-08T06:37:49;2.65;;;1.15;;
74679;SDS011;63211;48.548;2.704;2024-03-08T06:40:17;3.53;;;1.55;;
74679;SDS011;63211;48.548;2.704;2024-03-08T06:42:44;2.53;;;1.30;;
74679;SDS011;63211;48.548;2.704;2024-03-08T06:45:10;2.60;;;1.20;;
74679;SDS011;63211;48.548;2.704;2024-03-08T06:47:37;3.55;;;1.40;;
74679;SDS011;63211;48.548;2.704;2024-03-08T06:50:06;2.63;;;1.17;;
74679;SDS011;63211;48.548;2.704;2024-03-08T06:52:34;3.63;;;1.23;;
74679;SDS011;63211;48.548;2.704;2024-03-08T06:55:00;5.03;;;1.55;;
74679;SDS011;63211;48.548;2.704;2024-03-08T06:57:31;2.50;;;1.23;;
74679;SDS011;63211;48.548;2.704;2024-03-08T06:59:58;4.53;;;1.98;;
74679;SDS011;63211;48.548;2.704;2024-03-08T07:02:24;8.88;;;2.20;;
74679;SDS011;63211;48.548;2.704;2024-03-08T07:04:51;2.53;;;1.10;;
74679;SDS011;63211;48.548;2.704;2024-03-08T07:07:18;4.55;;;1.23;;
74679;SDS011;63211;48.548;2.704;2024-03-08T07:09:46;5.93;;;1.77;;
74679;SDS011;63211;48.548;2.704;2024-03-08T07:12:14;10.00;;;2.72;;
74679;SDS011;63211;48.548;2.704;2024-03-08T07:14:42;7.00;;;2.45;;
74679;SDS011;63211;48.548;2.704;2024-03-08T07:17:10;10.77;;;3.40;;
74679;SDS011;63211;48.548;2.704;2024-03-08T07:19:37;10.27;;;2.92;;
74679;SDS011;63211;48.548;2.704;2024-03-08T07:22:04;6.05;;;2.00;;
74679;SDS011;63211;48.548;2.704;2024-03-08T07:24:33;5.45;;;2.00;;
74679;SDS011;63211;48.548;2.704;2024-03-08T07:27:15;5.65;;;2.35;;
74679;SDS011;63211;48.548;2.704;2024-03-08T07:29:43;8.93;;;2.22;;
74679;SDS011;63211;48.548;2.704;2024-03-08T07:32:10;10.18;;;2.92;;
74679;SDS011;63211;48.548;2.704;2024-03-08T07:34:46;6.85;;;2.60;;
74679;SDS011;63211;48.548;2.704;2024-03-08T07:37:13;8.07;;;2.40;;
74679;SDS011;63211;48.548;2.704;2024-03-08T07:39:39;8.75;;;2.45;;
74679;SDS011;63211;48.548;2.704;2024-03-08T07:42:06;5.45;;;2.45;;
74679;SDS011;63211;48.548;2.704;2024-03-08T07:44:33;4.88;;;2.10;;
74679;SDS011;63211;48.548;2.704;2024-03-08T07:47:01;4.93;;;2.10;;
74679;SDS011;63211;48.548;2.704;2024-03-08T07:49:28;3.75;;;2.03;;
74679;SDS011;63211;48.548;2.704;2024-03-08T07:51:55;7.05;;;2.70;;
74679;SDS011;63211;48.548;2.704;2024-03-08T07:54:22;5.97;;;2.08;;
74679;SDS011;63211;48.548;2.704;2024-03-08T07:56:50;4.35;;;2.05;;
74679;SDS011;63211;48.548;2.704;2024-03-08T07:59:17;5.20;;;2.30;;
74679;SDS011;63211;48.548;2.704;2024-03-08T08:01:44;3.72;;;1.95;;
74679;SDS011;63211;48.548;2.704;2024-03-08T08:04:13;5.05;;;1.98;;
74679;SDS011;63211;48.548;2.704;2024-03-08T08:06:43;3.85;;;2.15;;
74679;SDS011;63211;48.548;2.704;2024-03-08T08:09:09;2.83;;;1.63;;
74679;SDS011;63211;48.548;2.704;2024-03-08T08:11:39;4.50;;;2.10;;
74679;SDS011;63211;48.548;2.704;2024-03-08T08:14:08;4.82;;;2.40;;
74679;SDS011;63211;48.548;2.704;2024-03-08T08:16:35;3.95;;;1.73;;
74679;SDS011;63211;48.548;2.704;2024-03-08T08:19:02;4.80;;;2.45;;
74679;SDS011;63211;48.548;2.704;2024-03-08T08:21:33;3.95;;;1.77;;
74679;SDS011;63211;48.548;2.704;2024-03-08T08:24:02;3.67;;;1.50;;
74679;SDS011;63211;48.548;2.704;2024-03-08T08:26:28;3.63;;;1.65;;
74679;SDS011;63211;48.548;2.704;2024-03-08T08:28:55;3.85;;;1.85;;
74679;SDS011;63211;48.548;2.704;2024-03-08T08:31:21;4.63;;;1.95;;
74679;SDS011;63211;48.548;2.704;2024-03-08T08:33:48;2.95;;;1.35;;
74679;SDS011;63211;48.548;2.704;2024-03-08T08:36:15;3.05;;;1.70;;
74679;SDS011;63211;48.548;2.704;2024-03-08T08:38:43;3.95;;;1.67;;
74679;SDS011;63211;48.548;2.704;2024-03-08T08:41:09;2.95;;;1.60;;
74679;SDS011;63211;48.548;2.704;2024-03-08T08:43:37;4.15;;;1.75;;
74679;SDS011;63211;48.548;2.704;2024-03-08T08:46:04;3.58;;;1.70;;
74679;SDS011;63211;48.548;2.704;2024-03-08T08:48:31;3.30;;;1.60;;
74679;SDS011;63211;48.548;2.704;2024-03-08T08:50:57;2.80;;;1.50;;
74679;SDS011;63211;48.548;2.704;2024-03-08T08:53:24;3.17;;;1.70;;
74679;SDS011;63211;48.548;2.704;2024-03-08T08:55:52;4.07;;;1.48;;
74679;SDS011;63211;48.548;2.704;2024-03-08T08:58:18;3.03;;;1.40;;
74679;SDS011;63211;48.548;2.704;2024-03-08T09:00:45;3.00;;;1.58;;
74679;SDS011;63211;48.548;2.704;2024-03-08T09:03:12;2.83;;;1.50;;
74679;SDS011;63211;48.548;2.704;2024-03-08T09:05:38;3.50;;;1.65;;
74679;SDS011;63211;48.548;2.704;2024-03-08T09:08:07;3.63;;;1.45;;
74679;SDS011;63211;48.548;2.704;2024-03-08T09:10:34;3.92;;;1.40;;
74679;SDS011;63211;48.548;2.704;2024-03-08T09:13:02;3.15;;;1.30;;
74679;SDS011;63211;48.548;2.704;2024-03-08T09:15:30;4.18;;;1.30;;
74679;SDS011;63211;48.548;2.704;2024-03-08T09:17:56;3.90;;;1.58;;
74679;SDS011;63211;48.548;2.704;2024-03-08T09:20:24;2.92;;;1.45;;
74679;SDS011;63211;48.548;2.704;2024-03-08T09:22:50;3.35;;;1.33;;
74679;SDS011;63211;48.548;2.704;2024-03-08T09:25:17;2.33;;;1.10;;
74679;SDS011;63211;48.548;2.704;2024-03-08T09:27:43;2.78;;;1.67;;
74679;SDS011;63211;48.548;2.704;2024-03-08T09:30:13;2.53;;;1.10;;
74679;SDS011;63211;48.548;2.704;2024-03-08T09:32:40;2.38;;;0.93;;
74679;SDS011;63211;48.548;2.704;2024-03-08T09:35:08;2.33;;;1.10;;
74679;SDS011;63211;48.548;2.704;2024-03-08T09:37:36;2.05;;;1.05;;
74679;SDS011;63211;48.548;2.704;2024-03-08T09:40:03;4.65;;;1.00;;
74679;SDS011;63211;48.548;2.704;2024-03-08T09:42:34;1.83;;;1.02;;
74679;SDS011;63211;48.548;2.704;2024-03-08T09:45:03;1.83;;;1.00;;
74679;SDS011;63211;48.548;2.704;2024-03-08T09:47:37;1.73;;;0.85;;
74679;SDS011;63211;48.548;2.704;2024-03-08T09:50:05;2.38;;;1.00;;
74679;SDS011;63211;48.548;2.704;2024-03-08T09:52:34;2.08;;;0.80;;
74679;SDS011;63211;48.548;2.704;2024-03-08T09:55:02;2.83;;;1.00;;
74679;SDS011;63211;48.548;2.704;2024-03-08T09:57:31;1.73;;;0.88;;
74679;SDS011;63211;48.548;2.704;2024-03-08T09:59:58;2.08;;;0.82;;
74679;SDS011;63211;48.548;2.704;2024-03-08T10:02:25;2.22;;;0.93;;
74679;SDS011;63211;48.548;2.704;2024-03-08T10:04:53;1.90;;;0.90;;
74679;SDS011;63211;48.548;2.704;2024-03-08T10:07:19;1.95;;;0.90;;
74679;SDS011;63211;48.548;2.704;2024-03-08T10:09:46;1.98;;;0.88;;
74679;SDS011;63211;48.548;2.704;2024-03-08T10:12:15;2.33;;;1.10;;
74679;SDS011;63211;48.548;2.704;2024-03-08T10:14:42;2.45;;;0.88;;
74679;SDS011;63211;48.548;2.704;2024-03-08T10:17:09;1.83;;;0.80;;
74679;SDS011;63211;48.548;2.704;2024-03-08T10:19:36;2.05;;;0.90;;
74679;SDS011;63211;48.548;2.704;2024-03-08T10:22:05;2.38;;;0.88;;
74679;SDS011;63211;48.548;2.704;2024-03-08T10:24:32;2.08;;;0.90;;
74679;SDS011;63211;48.548;2.704;2024-03-08T10:27:00;2.35;;;1.33;;
74679;SDS011;63211;48.548;2.704;2024-03-08T10:29:29;1.92;;;0.90;;
74679;SDS011;63211;48.548;2.704;2024-03-08T10:31:57;2.03;;;0.90;;
74679;SDS011;63211;48.548;2.704;2024-03-08T10:34:29;2.97;;;1.40;;
74679;SDS011;63211;48.548;2.704;2024-03-08T10:37:03;1.83;;;0.90;;
74679;SDS011;63211;48.548;2.704;2024-03-08T10:39:34;2.00;;;0.73;;
74679;SDS011;63211;48.548;2.704;2024-03-08T10:42:02;2.55;;;0.75;;
74679;SDS011;63211;48.548;2.704;2024-03-08T10:47:18;2.15;;;0.63;;
74679;SDS011;63211;48.548;2.704;2024-03-08T10:49:54;1.33;;;0.80;;
74679;SDS011;63211;48.548;2.704;2024-03-08T10:52:30;1.83;;;0.63;;
74679;SDS011;63211;48.548;2.704;2024-03-08T10:54:57;1.85;;;0.70;;
74679;SDS011;63211;48.548;2.704;2024-03-08T10:57:25;1.33;;;0.65;;
74679;SDS011;63211;48.548;2.704;2024-03-08T10:59:53;2.35;;;0.80;;
74679;SDS011;63211;48.548;2.704;2024-03-08T11:02:21;2.50;;;1.27;;
74679;SDS011;63211;48.548;2.704;2024-03-08T11:04:47;1.58;;;0.63;;
74679;SDS011;63211;48.548;2.704;2024-03-08T11:07:15;2.63;;;0.90;;
74679;SDS011;63211;48.548;2.704;2024-03-08T11:09:48;1.95;;;0.52;;
74679;SDS011;63211;48.548;2.704;2024-03-08T11:12:18;1.65;;;0.95;;
74679;SDS011;63211;48.548;2.704;2024-03-08T11:17:14;1.17;;;0.60;;
74679;SDS011;63211;48.548;2.704;2024-03-08T11:19:45;1.20;;;0.60;;
74679;SDS011;63211;48.548;2.704;2024-03-08T11:22:20;2.47;;;0.70;;
74679;SDS011;63211;48.548;2.704;2024-03-08T11:24:50;1.30;;;0.70;;
74679;SDS011;63211;48.548;2.704;2024-03-08T11:27:17;1.10;;;0.63;;
74679;SDS011;63211;48.548;2.704;2024-03-08T11:29:45;0.95;;;0.55;;
74679;SDS011;63211;48.548;2.704;2024-03-08T11:32:27;1.02;;;0.70;;
74679;SDS011;63211;48.548;2.704;2024-03-08T11:34:55;1.05;;;0.43;;
74679;SDS011;63211;48.548;2.704;2024-03-08T11:37:22;1.55;;;0.60;;
74679;SDS011;63211;48.548;2.704;2024-03-08T11:39:51;2.15;;;0.55;;
74679;SDS011;63211;48.548;2.704;2024-03-08T11:42:23;1.63;;;0.55;;
74679;SDS011;63211;48.548;2.704;2024-03-08T11:44:51;1.90;;;0.50;;
74679;SDS011;63211;48.548;2.704;2024-03-08T11:47:18;1.55;;;0.60;;
74679;SDS011;63211;48.548;2.704;2024-03-08T11:49:45;1.42;;;0.60;;
74679;SDS011;63211;48.548;2.704;2024-03-08T11:52:13;1.83;;;0.68;;
74679;SDS011;63211;48.548;2.704;2024-03-08T11:54:41;1.33;;;0.50;;
74679;SDS011;63211;48.548;2.704;2024-03-08T11:57:09;1.13;;;0.43;;
74679;SDS011;63211;48.548;2.704;2024-03-08T11:59:36;1.30;;;0.55;;
74679;SDS011;63211;48.548;2.704;2024-03-08T12:02:03;1.23;;;0.50;;
74679;SDS011;63211;48.548;2.704;2024-03-08T12:04:31;1.85;;;0.50;;
74679;SDS011;63211;48.548;2.704;2024-03-08T12:07:01;1.90;;;0.52;;
74679;SDS011;63211;48.548;2.704;2024-03-08T12:09:33;1.42;;;0.73;;
74679;SDS011;63211;48.548;2.704;2024-03-08T12:12:01;1.65;;;0.63;;
74679;SDS011;63211;48.548;2.704;2024-03-08T12:14:29;1.33;;;0.52;;
74679;SDS011;63211;48.548;2.704;2024-03-08T12:16:57;1.42;;;0.47;;
74679;SDS011;63211;48.548;2.704;2024-03-08T12:19:24;1.15;;;0.50;;
74679;SDS011;63211;48.548;2.704;2024-03-08T12:21:51;1.67;;;0.70;;
74679;SDS011;63211;48.548;2.704;2024-03-08T12:24:18;1.38;;;0.50;;
74679;SDS011;63211;48.548;2.704;2024-03-08T12:26:46;2.22;;;0.88;;
74679;SDS011;63211;48.548;2.704;2024-03-08T12:29:14;1.02;;;0.40;;
74679;SDS011;63211;48.548;2.704;2024-03-08T12:31:49;2.20;;;0.80;;
74679;SDS011;63211;48.548;2.704;2024-03-08T12:34:18;1.67;;;0.55;;
74679;SDS011;63211;48.548;2.704;2024-03-08T12:36:45;1.85;;;0.80;;
74679;SDS011;63211;48.548;2.704;2024-03-08T12:39:17;0.93;;;0.40;;
74679;SDS011;63211;48.548;2.704;2024-03-08T12:41:47;1.80;;;0.45;;
74679;SDS011;63211;48.548;2.704;2024-03-08T12:44:14;0.77;;;0.20;;
74679;SDS011;63211;48.548;2.704;2024-03-08T12:46:41;0.70;;;0.40;;
74679;SDS011;63211;48.548;2.704;2024-03-08T12:49:12;1.48;;;0.63;;
74679;SDS011;63211;48.548;2.704;2024-03-08T12:51:42;0.82;;;0.38;;
74679;SDS011;63211;48.548;2.704;2024-03-08T12:54:09;1.08;;;0.47;;
74679;SDS011;63211;48.548;2.704;2024-03-08T12:56:36;1.67;;;0.45;;
74679;SDS011;63211;48.548;2.704;2024-03-08T12:59:03;1.45;;;0.40;;
74679;SDS011;63211;48.548;2.704;2024-03-08T13:01:31;0.40;;;0.30;;
74679;SDS011;63211;48.548;2.704;2024-03-08T13:03:58;1.50;;;0.35;;
74679;SDS011;63211;48.548;2.704;2024-03-08T13:06:26;1.17;;;0.52;;
74679;SDS011;63211;48.548;2.704;2024-03-08T13:08:54;1.55;;;0.50;;
74679;SDS011;63211;48.548;2.704;2024-03-08T13:11:20;0.57;;;0.30;;
74679;SDS011;63211;48.548;2.704;2024-03-08T13:13:48;0.63;;;0.38;;
74679;SDS011;63211;48.548;2.704;2024-03-08T13:16:15;1.33;;;0.50;;
74679;SDS011;63211;48.548;2.704;2024-03-08T13:18:44;0.47;;;0.20;;
74679;SDS011;63211;48.548;2.704;2024-03-08T13:21:11;1.85;;;0.50;;
74679;SDS011;63211;48.548;2.704;2024-03-08T13:23:41;1.77;;;0.38;;
74679;SDS011;63211;48.548;2.704;2024-03-08T13:26:10;1.17;;;0.50;;
74679;SDS011;63211;48.548;2.704;2024-03-08T13:28:40;1.17;;;0.25;;
74679;SDS011;63211;48.548;2.704;2024-03-08T13:31:07;0.82;;;0.32;;
74679;SDS011;63211;48.548;2.704;2024-03-08T13:33:35;0.60;;;0.22;;
74679;SDS011;63211;48.548;2.704;2024-03-08T13:36:02;0.77;;;0.25;;
74679;SDS011;63211;48.548;2.704;2024-03-08T13:38:31;0.93;;;0.40;;
74679;SDS011;63211;48.548;2.704;2024-03-08T13:41:00;1.55;;;0.63;;
74679;SDS011;63211;48.548;2.704;2024-03-08T13:43:27;0.30;;;0.20;;
74679;SDS011;63211;48.548;2.704;2024-03-08T13:45:54;1.27;;;0.30;;
74679;SDS011;63211;48.548;2.704;2024-03-08T13:48:21;0.60;;;0.30;;
74679;SDS011;63211;48.548;2.704;2024-03-08T13:50:48;0.95;;;0.20;;
74679;SDS011;63211;48.548;2.704;2024-03-08T13:53:15;0.38;;;0.20;;
74679;SDS011;63211;48.548;2.704;2024-03-08T13:55:42;1.08;;;0.88;;
74679;SDS011;63211;48.548;2.704;2024-03-08T13:58:10;0.60;;;0.30;;
74679;SDS011;63211;48.548;2.704;2024-03-08T14:00:39;0.35;;;0.20;;
74679;SDS011;63211;48.548;2.704;2024-03-08T14:03:08;0.82;;;0.40;;
74679;SDS011;63211;48.548;2.704;2024-03-08T14:05:35;0.52;;;0.20;;
74679;SDS011;63211;48.548;2.704;2024-03-08T14:08:04;1.02;;;0.20;;
74679;SDS011;63211;48.548;2.704;2024-03-08T14:10:32;1.48;;;0.32;;
74679;SDS011;63211;48.548;2.704;2024-03-08T14:12:59;1.98;;;0.30;;
74679;SDS011;63211;48.548;2.704;2024-03-08T14:15:29;1.20;;;0.40;;
74679;SDS011;63211;48.548;2.704;2024-03-08T14:17:56;1.50;;;0.20;;
74679;SDS011;63211;48.548;2.704;2024-03-08T14:20:23;1.23;;;0.38;;
74679;SDS011;63211;48.548;2.704;2024-03-08T14:22:50;0.60;;;0.30;;
74679;SDS011;63211;48.548;2.704;2024-03-08T14:25:17;1.48;;;0.40;;
74679;SDS011;63211;48.548;2.704;2024-03-08T14:27:44;1.58;;;0.50;;
74679;SDS011;63211;48.548;2.704;2024-03-08T14:30:11;0.52;;;0.20;;
74679;SDS011;63211;48.548;2.704;2024-03-08T14:32:40;0.68;;;0.50;;
74679;SDS011;63211;48.548;2.704;2024-03-08T14:35:07;1.60;;;0.40;;
74679;SDS011;63211;48.548;2.704;2024-03-08T14:37:36;0.55;;;0.30;;
74679;SDS011;63211;48.548;2.704;2024-03-08T14:40:03;1.02;;;0.30;;
74679;SDS011;63211;48.548;2.704;2024-03-08T14:42:30;1.90;;;0.32;;
74679;SDS011;63211;48.548;2.704;2024-03-08T14:44:57;1.95;;;0.30;;
74679;SDS011;63211;48.548;2.704;2024-03-08T14:47:25;1.15;;;0.28;;
74679;SDS011;63211;48.548;2.704;2024-03-08T14:49:53;1.83;;;0.40;;
74679;SDS011;63211;48.548;2.704;2024-03-08T14:52:20;0.38;;;0.20;;
74679;SDS011;63211;48.548;2.704;2024-03-08T14:54:55;2.95;;;0.40;;
74679;SDS011;63211;48.548;2.704;2024-03-08T14:57:23;3.38;;;0.30;;